Latest Weather Observations for Nullo Mountain

IDN60801

Issued at 3:05 am EDT Tuesday 25 November 2014 (issued every 30 minutes, with the page automatically refreshed every 10 minutes)

About weather observations | Map of weather stations | Latest weather observations for NSW | Other Formats
Station Details ID: 062100 Name: NULLO MOUNTAIN AWS Lat: -32.72 Lon: 150.23 Height: 1130.0 m
Data from the previous 72 hours. | See also: Recent months at Nullo Mountain
Date/Time
EDT
Temp
°C
App
Temp
°C
Dew
Point
Rel
Hum
%
Delta-T
°C
Wind Press
QNH
hPa
Press
MSL
hPa
Rain
since 9 am
mm
Dir
 
Spd
km/h
Gust
km/h
Spd
kts
Gust
kts
25/03:00am 15.6 15.7 15.6 100 0.0 W 9 20 5 11 - - 14.4
25/02:30am 15.8 14.9 15.8 100 0.0 WNW 15 35 8 19 - - 13.6
25/02:00am - - - - - WNW 11 22 6 12 - - 11.8
25/01:30am 15.7 14.7 15.7 100 0.0 NW 15 24 8 13 - - 11.6
25/01:00am 15.8 15.6 15.8 100 0.0 NW 11 17 6 9 - - 11.2
25/12:30am 15.8 16.4 15.8 100 0.0 WNW 7 15 4 8 - - 10.8
25/12:00am 16.0 15.2 16.0 100 0.0 NW 15 28 8 15 - - 10.0
 
Date/Time
EDT
Temp
°C
App
Temp
°C
Dew
Point
Rel
Hum
%
Delta-T
°C
Wind Press
QNH
hPa
Press
MSL
hPa
Rain
since 9 am
mm
Dir
 
Spd
km/h
Gust
km/h
Spd
kts
Gust
kts
24/11:30pm 16.1 16.0 16.1 100 0.0 NW 11 19 6 10 - - 8.8
24/11:00pm 16.2 15.7 16.0 99 0.1 WNW 13 30 7 16 - - 8.2
24/10:30pm 16.6 16.5 16.1 97 0.3 WNW 11 26 6 14 - - 6.8
24/10:00pm 17.1 16.3 16.1 94 0.6 W 15 30 8 16 - - 5.4
24/09:30pm 18.3 19.0 17.1 93 0.8 W 9 17 5 9 - - 3.2
24/09:00pm 19.3 19.5 16.7 85 1.6 NW 11 24 6 13 - - 2.0
24/08:30pm 21.1 22.0 16.7 76 2.8 NNW 7 15 4 8 - - 1.6
24/08:00pm - - - - - NNW 7 13 4 7 - - 1.6
24/07:30pm - - - - - NNW 13 19 7 10 - - 1.6
24/07:00pm - - - - - NW 6 11 3 6 - - 1.6
24/06:30pm - - - - - NW 7 13 4 7 - - 1.6
24/06:00pm - - - - - WNW 7 13 4 7 - - 1.6
24/05:30pm - - - - - W 9 17 5 9 - - 1.6
24/05:00pm - - - - - WNW 7 13 4 7 - - 1.6
24/04:30pm - - - - - WNW 17 28 9 15 - - 0.2
24/04:00pm - - - - - NW 13 22 7 12 - - 0.0
24/03:30pm - - - - - NW 17 28 9 15 - - 0.0
24/03:00pm - - - - - NW 13 22 7 12 - - 0.0
24/02:30pm - - - - - NNW 17 30 9 16 - - 0.0
24/02:00pm - - - - - NNW 22 37 12 20 - - 0.0
24/01:30pm - - - - - NNW 26 48 14 26 - - 0.0
24/01:00pm - - - - - N 20 33 11 18 - - 0.0
24/12:30pm - - - - - NNW 20 41 11 22 - - 0.0
24/12:00pm - - - - - N 20 39 11 21 - - 0.0
24/11:30am - - - - - N 17 37 9 20 - - 0.0
24/11:00am - - - - - NW 15 28 8 15 - - 0.0
24/10:30am - - - - - NNW 15 35 8 19 - - 0.0
24/10:00am 26.5 25.5 12.2 41 8.7 N 9 15 5 8 - - 0.0
24/09:30am - - - - - NNE 9 15 5 8 - - 0.0
24/09:00am - - - - - NNW 9 19 5 10 - - 0.4
24/08:30am - - - - - N 6 15 3 8 - - 0.4
24/08:00am - - - - - N 6 11 3 6 - - 0.4
24/07:30am - - - - - N 7 15 4 8 - - 0.4
24/07:00am - - - - - NNW 11 17 6 9 - - 0.4
24/06:30am - - - - - NNW 9 15 5 8 - - 0.4
24/06:00am - - - - - WNW 9 17 5 9 - - 0.4
24/05:30am - - - - - WNW 6 13 3 7 - - 0.4
24/05:00am - - - - - N 6 11 3 6 - - 0.4
24/04:30am - - - - - N 9 15 5 8 - - 0.4
24/04:00am - - - - - N 11 17 6 9 - - 0.4
24/03:30am - - - - - N 13 20 7 11 - - 0.4
24/03:00am - - - - - N 15 26 8 14 - - 0.4
24/02:30am - - - - - N 17 24 9 13 - - 0.4
24/02:00am - - - - - N 15 37 8 20 - - 0.4
24/01:30am - - - - - N 15 22 8 12 - - 0.4
24/01:00am - - - - - N 9 15 5 8 - - 0.4
24/12:30am - - - - - N 9 15 5 8 - - 0.4
24/12:00am - - - - - NE 6 9 3 5 - - 0.4
 
Date/Time
EDT
Temp
°C
App
Temp
°C
Dew
Point
Rel
Hum
%
Delta-T
°C
Wind Press
QNH
hPa
Press
MSL
hPa
Rain
since 9 am
mm
Dir
 
Spd
km/h
Gust
km/h
Spd
kts
Gust
kts
23/11:00pm - - - - - NNE 15 28 8 15 - - 0.4
23/10:30pm - - - - - E 19 28 10 15 - - 0.2
23/10:00pm - - - - - ESE 9 15 5 8 - - 0.2
23/09:30pm - - - - - S 11 15 6 8 - - 0.2
23/09:00pm 25.8 24.7 8.3 33 9.9 W 4 9 2 5 - - 0.2
23/08:30pm 26.6 24.2 8.6 32 10.3 SSW 11 19 6 10 - - 0.2
23/08:00pm - - - - - NW 6 13 3 7 - - 0.2
23/07:30pm 27.4 25.3 8.3 30 10.9 NNW 9 24 5 13 - - 0.2
23/07:00pm 25.9 24.7 9.7 36 9.4 NW 6 13 3 7 - - 0.2
23/06:30pm 25.9 23.9 10.1 37 9.2 ESE 11 15 6 8 - - 0.2
23/06:00pm 27.6 26.5 9.9 33 10.4 NW 6 17 3 9 - - 0.2
23/05:30pm 28.4 24.3 8.7 29 11.4 NNW 20 37 11 20 - - 0.2
23/05:00pm 26.8 24.6 9.2 33 10.2 S 11 22 6 12 - - 0.2
23/04:30pm 30.1 25.7 6.7 23 13.2 NNW 19 26 10 14 - - 0.0
23/04:00pm 33.7 30.5 5.3 17 15.9 W 11 24 6 13 - - 0.0
23/03:30pm 33.7 30.3 6.1 18 15.7 W 13 22 7 12 - - 0.0
23/03:00pm 32.8 29.7 5.4 18 15.3 NW 11 22 6 12 - - 0.0
23/02:30pm 33.4 30.0 4.2 16 16.1 WNW 11 20 6 11 - - 0.0
23/02:00pm - - - - - W 19 30 10 16 - - 0.0
23/01:30pm - - - - - NNW 11 22 6 12 - - 0.0
23/01:00pm - - - - - NNW 17 28 9 15 - - 0.0
23/12:30pm 33.4 30.3 7.4 20 15.0 NW 13 24 7 13 - - 0.0
23/12:00pm 32.5 28.4 8.0 22 14.2 NNW 19 28 10 15 - - 0.0
23/11:30am 31.6 27.2 6.6 21 14.2 NNW 19 30 10 16 - - 0.0
23/11:00am - - - - - NW 17 30 9 16 - - 0.0
23/10:30am - - - - - NNW 17 26 9 14 - - 0.0
23/10:00am - - - - - NNW 15 28 8 15 - - 0.0
23/09:30am 28.8 25.6 6.8 25 12.3 N 13 22 7 12 - - 0.0
23/09:00am - - - - - N 13 20 7 11 - - 0.0
23/08:30am - - - - - N 9 17 5 9 - - 0.0
23/08:00am - - - - - N 7 9 4 5 - - 0.0
23/07:30am - - - - - N 4 7 2 4 - - 0.0
23/07:00am - - - - - NNE 2 4 1 2 - - 0.0
23/06:30am - - - - - CALM 0 0 0 0 - - 0.0
23/06:00am - - - - - N 2 4 1 2 - - 0.0
23/05:30am - - - - - N 4 6 2 3 - - 0.0
23/05:00am - - - - - NE 2 6 1 3 - - 0.0
23/04:30am - - - - - NE 2 4 1 2 - - 0.0
23/04:00am - - - - - N 2 6 1 3 - - 0.0
23/03:30am - - - - - NNE 2 6 1 3 - - 0.0
23/03:00am - - - - - ENE 2 4 1 2 - - 0.0
23/02:30am - - - - - E 4 6 2 3 - - 0.0
23/02:00am - - - - - E 4 4 2 2 - - 0.0
23/01:30am - - - - - E 4 6 2 3 - - 0.0
23/01:00am - - - - - E 4 4 2 2 - - 0.0
23/12:30am - - - - - E 4 6 2 3 - - 0.0
23/12:00am - - - - - SE 6 6 3 3 - - 0.0
 
Date/Time
EDT
Temp
°C
App
Temp
°C
Dew
Point
Rel
Hum
%
Delta-T
°C
Wind Press
QNH
hPa
Press
MSL
hPa
Rain
since 9 am
mm
Dir
 
Spd
km/h
Gust
km/h
Spd
kts
Gust
kts
22/11:30pm 20.5 19.5 7.5 43 7.1 ESE 2 4 1 2 - - 0.0
22/11:00pm - - - - - E 6 7 3 4 - - 0.0
22/10:30pm - - - - - SSE 7 11 4 6 - - 0.0
22/10:00pm 23.4 21.5 4.9 30 9.8 SSW 4 7 2 4 - - 0.0
22/09:30pm 24.7 22.2 4.5 27 10.7 SW 7 11 4 6 - - 0.0
22/09:00pm - - - - - W 2 4 1 2 - - 0.0
22/08:30pm 23.4 21.9 4.9 30 9.8 WSW 2 7 1 4 - - 0.0
22/08:00pm - - - - - WSW 4 7 2 4 - - 0.0
22/07:30pm - - - - - WSW 4 7 2 4 - - 0.0
22/07:00pm - - - - - W 6 15 3 8 - - 0.0
22/06:30pm - - - - - WNW 9 20 5 11 - - 0.0
22/06:00pm - - - - - W 9 20 5 11 - - 0.0
22/05:30pm - - - - - W 13 26 7 14 - - 0.0
22/05:00pm - - - - - W 11 20 6 11 - - 0.0
22/04:30pm - - - - - NW 13 28 7 15 - - 0.0
22/04:00pm - - - - - NW 11 26 6 14 - - 0.0
22/03:30pm 29.3 27.1 7.8 26 12.3 NW 9 19 5 10 - - 0.0
22/03:00pm 29.1 26.9 9.3 29 11.6 NNW 11 22 6 12 - - 0.0
22/02:30pm 29.2 27.4 9.3 29 11.6 NW 9 22 5 12 - - 0.0
22/02:00pm 28.1 26.0 8.4 29 11.3 W 9 19 5 10 - - 0.0
22/01:30pm 27.6 24.3 4.6 23 12.4 NW 11 20 6 11 - - 0.0
22/01:00pm 27.5 25.4 9.8 33 10.4 NNW 11 20 6 11 - - 0.0
22/12:30pm - - - - - WNW 13 26 7 14 - - 0.0
22/12:00pm - - - - - WNW 9 20 5 11 - - 0.0
22/11:30am - - - - - NNW 13 19 7 10 - - 0.0
22/11:00am - - - - - NNW 11 20 6 11 - - 0.0
22/10:30am - - - - - NNW 9 15 5 8 - - 0.0
22/10:00am 22.5 22.6 13.8 58 5.3 N 6 9 3 5 - - 0.0
22/09:30am 20.9 20.6 12.8 60 4.8 NW 6 11 3 6 - - 0.0
22/09:00am - - - - - WNW 6 9 3 5 - - 0.0
22/08:30am - - - - - E 9 11 5 6 - - 0.0
22/08:00am - - - - - E 9 11 5 6 - - 0.0
22/07:30am - - - - - E 7 9 4 5 - - 0.0
22/07:00am - - - - - CALM 0 0 0 0 - - 0.0
22/06:30am - - - - - CALM 0 0 0 0 - - 0.0
22/06:00am - - - - - CALM 0 0 0 0 - - 0.0
22/05:30am - - - - - CALM 0 4 0 2 - - 0.0
22/05:00am - - - - - ENE 2 4 1 2 - - 0.0
22/04:30am - - - - - E 4 4 2 2 - - 0.0
22/04:00am - - - - - ESE 6 7 3 4 - - 0.0
22/03:30am - - - - - E 6 9 3 5 - - 0.0

Other Formats:

Comma delimited format used in spreadsheet applications
http://www.bom.gov.au/fwo/IDN60801/IDN60801.94754.axf

JavaScript Object Notation format (JSON) in row-major order
http://www.bom.gov.au/fwo/IDN60801/IDN60801.94754.json